createdAt,value
2023-04-16T00:01:33.088Z,98054.19
2023-04-16T00:04:00.035Z,98051.59
2023-04-16T00:06:27.761Z,98050.69
2023-04-16T00:08:54.337Z,98052.44
2023-04-16T00:11:21.042Z,98049.97
2023-04-16T00:13:47.607Z,98049.97
2023-04-16T00:16:14.290Z,98055.13
2023-04-16T00:18:40.897Z,98050.97
2023-04-16T00:21:07.776Z,98055.16
2023-04-16T00:24:08.731Z,98061.09
2023-04-16T00:30:16.528Z,98048.22
2023-04-16T00:33:11.294Z,98055.06
2023-04-16T00:38:52.296Z,98055.94
2023-04-16T00:44:02.949Z,98051.72
2023-04-16T00:46:39.333Z,98055.06
2023-04-16T00:49:35.359Z,98056.72
2023-04-16T01:06:39.753Z,98048.19
2023-04-16T01:09:44.016Z,98051.66
2023-04-16T01:33:47.190Z,98054.34
2023-04-16T01:36:35.172Z,98052.56
2023-04-16T01:39:09.813Z,98056.84
2023-04-16T01:41:51.762Z,98064.59
2023-04-16T01:44:26.001Z,98053.56
2023-04-16T01:46:57.196Z,98059.53
2023-04-16T01:49:25.770Z,98060.34
2023-04-16T01:52:03.728Z,98057.78
2023-04-16T01:54:34.370Z,98060.31
2023-04-16T01:57:05.348Z,98062.06
2023-04-16T01:59:35.148Z,98059.44
2023-04-16T02:02:14.295Z,98066.28
2023-04-16T02:04:55.549Z,98054.38
2023-04-16T02:07:39.616Z,98055.97
2023-04-16T02:11:14.770Z,98055.13
2023-04-16T02:13:52.871Z,98060.28
2023-04-16T02:17:18.691Z,98058.50
2023-04-16T02:23:09.537Z,98066.22
2023-04-16T02:26:01.300Z,98060.19
2023-04-16T02:28:42.606Z,98061.94
2023-04-16T02:31:27.420Z,98062.88
2023-04-16T02:34:11.884Z,98062.00
2023-04-16T02:36:44.134Z,98072.16
2023-04-16T02:39:23.884Z,98066.19
2023-04-16T02:42:03.540Z,98066.19
2023-04-16T02:44:32.880Z,98075.56
2023-04-16T02:47:26.987Z,98067.00
2023-04-16T02:50:02.562Z,98073.00
2023-04-16T02:55:32.063Z,98080.81
2023-04-16T03:00:57.294Z,98079.91
2023-04-16T03:03:44.016Z,98075.69
2023-04-16T03:06:21.449Z,98077.38
2023-04-16T03:09:49.916Z,98074.84
2023-04-16T03:15:29.566Z,98084.22
2023-04-16T03:18:08.163Z,98084.31
2023-04-16T03:23:52.796Z,98084.28
2023-04-16T03:26:19.487Z,98088.50
2023-04-16T03:28:46.060Z,98091.09
2023-04-16T03:31:13.261Z,98089.41
2023-04-16T03:33:39.769Z,98093.66
2023-04-16T03:38:50.600Z,98096.06
2023-04-16T03:41:21.981Z,98094.47
2023-04-16T03:43:54.040Z,98097.88
2023-04-16T03:46:23.933Z,98094.47
2023-04-16T03:48:50.636Z,98099.59
2023-04-16T03:51:20.284Z,98103.81
2023-04-16T03:53:47.003Z,98099.59
2023-04-16T03:56:13.940Z,98097.88
2023-04-16T03:58:51.870Z,98101.28
2023-04-16T04:01:20.739Z,98095.34
2023-04-16T04:06:57.069Z,98099.56
2023-04-16T04:09:35.288Z,98103.00
2023-04-16T04:12:12.761Z,98105.56
2023-04-16T04:14:49.005Z,98109.00
2023-04-16T04:17:15.730Z,98106.38
2023-04-16T04:19:50.705Z,98110.72
2023-04-16T04:22:31.393Z,98109.91
2023-04-16T04:25:13.067Z,98112.47
2023-04-16T04:28:01.656Z,98110.81
2023-04-16T04:34:27.449Z,98120.16
2023-04-16T04:40:18.293Z,98125.25
2023-04-16T04:43:36.351Z,98120.94
2023-04-16T04:46:46.709Z,98130.34
2023-04-16T04:49:49.088Z,98133.66
2023-04-16T04:52:25.238Z,98137.03
2023-04-16T04:55:04.963Z,98132.69
2023-04-16T04:58:02.955Z,98140.28
2023-04-16T05:00:40.734Z,98145.44
2023-04-16T05:03:16.673Z,98144.50
2023-04-16T05:05:58.669Z,98142.72
2023-04-16T05:08:26.773Z,98145.34
2023-04-16T05:10:55.332Z,98152.19
2023-04-16T05:13:23.494Z,98153.91
2023-04-16T05:15:53.208Z,98158.97
2023-04-16T05:18:25.022Z,98160.75
2023-04-16T05:21:05.809Z,98160.75
2023-04-16T05:23:37.241Z,98159.00
2023-04-16T05:26:05.671Z,98164.88
2023-04-16T05:28:35.043Z,98167.38
2023-04-16T05:31:04.423Z,98175.09
2023-04-16T05:33:36.174Z,98176.78
2023-04-16T05:36:08.987Z,98178.47
2023-04-16T05:38:41.997Z,98173.41
2023-04-16T05:41:08.437Z,98177.56
2023-04-16T05:43:34.850Z,98177.59
2023-04-16T05:46:01.357Z,98180.88
2023-04-16T05:48:27.784Z,98181.66
2023-04-16T05:50:54.194Z,98191.09
2023-04-16T05:53:20.695Z,98191.94
2023-04-16T05:55:47.153Z,98189.22
2023-04-16T05:58:13.550Z,98197.78
2023-04-16T06:00:40.649Z,98194.25
2023-04-16T06:03:07.316Z,98199.34
2023-04-16T06:05:33.870Z,98201.88
2023-04-16T06:08:00.373Z,98200.09
2023-04-16T06:10:26.878Z,98206.03
2023-04-16T06:12:53.333Z,98205.22
2023-04-16T06:15:19.756Z,98209.38
2023-04-16T06:17:46.308Z,98207.56
2023-04-16T06:20:13.254Z,98207.56
2023-04-16T06:22:39.787Z,98215.16
2023-04-16T06:25:06.540Z,98214.50
2023-04-16T06:27:32.908Z,98214.44
2023-04-16T06:29:59.288Z,98212.66
2023-04-16T06:32:25.960Z,98221.28
2023-04-16T06:34:52.389Z,98219.59
2023-04-16T06:37:18.761Z,98223.75
2023-04-16T06:39:45.212Z,98223.69
2023-04-16T06:42:11.676Z,98230.50
2023-04-16T06:44:38.184Z,98238.81
2023-04-16T06:47:04.824Z,98248.22
2023-04-16T06:49:31.615Z,98244.84
2023-04-16T06:51:58.075Z,98235.47
2023-04-16T06:54:24.441Z,98245.75
2023-04-16T06:56:50.819Z,98237.25
2023-04-16T06:59:17.196Z,98250.88
2023-04-16T07:01:43.658Z,98254.22
2023-04-16T07:04:10.899Z,98252.69
2023-04-16T07:06:37.352Z,98254.25
2023-04-16T07:09:03.829Z,98255.78
2023-04-16T07:11:30.308Z,98254.84
2023-04-16T07:13:57.694Z,98248.75
2023-04-16T07:16:24.281Z,98255.53
2023-04-16T07:18:50.730Z,98251.16
2023-04-16T07:21:17.236Z,98254.47
2023-04-16T07:23:43.672Z,98252.75
2023-04-16T07:26:11.480Z,98256.84
2023-04-16T07:28:37.940Z,98255.81
2023-04-16T07:31:04.448Z,98257.41
2023-04-16T07:33:32.991Z,98263.28
2023-04-16T07:35:59.395Z,98264.88
2023-04-16T07:38:25.780Z,98264.91
2023-04-16T07:40:52.203Z,98262.22
2023-04-16T07:43:19.625Z,98265.56
2023-04-16T07:45:46.080Z,98261.31
2023-04-16T07:48:12.504Z,98271.53
2023-04-16T07:50:38.952Z,98273.91
2023-04-16T07:53:07.556Z,98266.16
2023-04-16T07:55:33.926Z,98273.75
2023-04-16T07:58:00.454Z,98269.34
2023-04-16T08:00:26.943Z,98267.56
2023-04-16T08:02:53.423Z,98273.28
2023-04-16T08:05:19.978Z,98266.25
2023-04-16T08:07:46.428Z,98277.19
2023-04-16T08:10:13.002Z,98277.81
2023-04-16T08:12:40.781Z,98273.38
2023-04-16T08:15:08.001Z,98277.53
2023-04-16T08:17:35.387Z,98282.38
2023-04-16T08:20:01.908Z,98282.56
2023-04-16T08:22:28.365Z,98291.06
2023-04-16T08:24:54.783Z,98289.53
2023-04-16T08:27:21.243Z,98293.69
2023-04-16T08:29:48.431Z,98295.38
2023-04-16T08:32:15.060Z,98304.03
2023-04-16T08:34:41.936Z,98308.91
2023-04-16T08:37:08.547Z,98307.03
2023-04-16T08:39:35.363Z,98317.16
2023-04-16T08:42:05.569Z,98314.31
2023-04-16T08:44:34.926Z,98323.53
2023-04-16T08:47:02.323Z,98320.00
2023-04-16T08:49:29.814Z,98323.00
2023-04-16T08:51:57.012Z,98328.50
2023-04-16T08:54:42.793Z,98328.31
2023-04-16T08:57:11.865Z,98327.09
2023-04-16T08:59:38.956Z,98335.19
2023-04-16T09:02:06.911Z,98334.25
2023-04-16T09:04:34.358Z,98331.88
2023-04-16T09:07:04.501Z,98335.31
2023-04-16T09:09:33.379Z,98340.56
2023-04-16T09:12:01.152Z,98339.13
2023-04-16T09:14:27.544Z,98345.34
2023-04-16T09:16:55.632Z,98342.63
2023-04-16T09:19:22.935Z,98345.06
2023-04-16T09:21:49.796Z,98347.88
2023-04-16T09:24:16.473Z,98350.78
2023-04-16T09:26:45.846Z,98352.94
2023-04-16T09:29:12.402Z,98351.47
2023-04-16T09:31:38.933Z,98356.41
2023-04-16T09:34:07.358Z,98359.78
2023-04-16T09:36:34.719Z,98358.47
2023-04-16T09:39:01.916Z,98359.16
2023-04-16T09:41:32.176Z,98364.72
2023-04-16T09:44:04.492Z,98367.81
2023-04-16T09:46:34.558Z,98367.09
2023-04-16T09:49:18.564Z,98369.72
2023-04-16T09:51:48.501Z,98378.59
2023-04-16T09:54:15.549Z,98371.03
2023-04-16T09:56:43.700Z,98371.41
2023-04-16T09:59:20.962Z,98374.84
2023-04-16T10:01:49.510Z,98379.06
2023-04-16T10:04:18.875Z,98370.50
2023-04-16T10:07:02.094Z,98382.25
2023-04-16T10:09:32.643Z,98388.22
2023-04-16T10:11:59.133Z,98386.41
2023-04-16T10:14:25.841Z,98384.59
2023-04-16T10:16:53.166Z,98394.03
2023-04-16T10:19:20.602Z,98391.13
2023-04-16T10:21:47.816Z,98390.59
2023-04-16T10:24:16.598Z,98396.59
2023-04-16T10:26:44.333Z,98399.25
2023-04-16T10:29:13.356Z,98403.41
2023-04-16T10:31:41.787Z,98405.50
2023-04-16T10:34:09.400Z,98404.34
2023-04-16T10:36:40.087Z,98405.81
2023-04-16T10:39:12.180Z,98412.38
2023-04-16T10:41:40.023Z,98401.25
2023-04-16T10:44:12.375Z,98404.59
2023-04-16T10:46:43.055Z,98411.19
2023-04-16T10:49:23.294Z,98410.06
2023-04-16T10:51:56.962Z,98414.97
2023-04-16T10:54:28.410Z,98411.44
2023-04-16T10:57:04.727Z,98411.97
2023-04-16T10:59:34.726Z,98416.94
2023-04-16T11:02:06.880Z,98415.56
2023-04-16T11:04:36.217Z,98424.00
2023-04-16T11:07:07.043Z,98416.84
2023-04-16T11:09:56.574Z,98419.03
2023-04-16T11:12:33.412Z,98427.63
2023-04-16T11:15:02.167Z,98423.69
2023-04-16T11:17:31.962Z,98431.56
2023-04-16T11:19:58.590Z,98425.59
2023-04-16T11:22:25.850Z,98433.25
2023-04-16T11:24:56.637Z,98429.06
2023-04-16T11:27:24.246Z,98439.69
2023-04-16T11:30:00.181Z,98432.09
2023-04-16T11:32:26.896Z,98435.56
2023-04-16T11:34:53.429Z,98429.31
2023-04-16T11:37:21.982Z,98440.72
2023-04-16T11:39:52.489Z,98443.97
2023-04-16T11:42:22.580Z,98441.69
2023-04-16T11:44:56.687Z,98445.59
2023-04-16T11:47:24.453Z,98436.00
2023-04-16T11:49:51.511Z,98446.38
2023-04-16T11:52:33.404Z,98445.06
2023-04-16T11:54:59.892Z,98432.81
2023-04-16T11:57:31.034Z,98439.66
2023-04-16T12:00:02.492Z,98441.16
2023-04-16T12:02:46.043Z,98449.03
2023-04-16T12:05:31.926Z,98448.72
2023-04-16T12:07:59.601Z,98450.47
2023-04-16T12:10:27.152Z,98446.97
2023-04-16T12:12:53.561Z,98447.47
2023-04-16T12:15:20.027Z,98448.91
2023-04-16T12:17:46.499Z,98441.22
2023-04-16T12:20:15.286Z,98455.25
2023-04-16T12:22:47.453Z,98447.19
2023-04-16T12:25:15.886Z,98441.13
2023-04-16T12:27:53.055Z,98446.81
2023-04-16T12:30:22.847Z,98442.69
2023-04-16T12:32:52.038Z,98450.22
2023-04-16T12:35:32.771Z,98448.00
2023-04-16T12:38:00.397Z,98450.22
2023-04-16T12:40:27.445Z,98445.00
2023-04-16T12:42:53.891Z,98443.41
2023-04-16T12:45:20.655Z,98439.72
2023-04-16T12:47:47.636Z,98443.78
2023-04-16T12:50:14.129Z,98439.75
2023-04-16T12:52:40.655Z,98437.25
2023-04-16T12:55:07.313Z,98444.66
2023-04-16T12:57:33.765Z,98442.13
2023-04-16T13:00:00.232Z,98441.00
2023-04-16T13:02:27.411Z,98447.22
2023-04-16T13:04:54.488Z,98450.06
2023-04-16T13:07:21.417Z,98441.53
2023-04-16T13:09:48.641Z,98441.81
2023-04-16T13:12:16.062Z,98439.78
2023-04-16T13:14:44.939Z,98435.88
2023-04-16T13:17:11.518Z,98431.78
2023-04-16T13:19:37.934Z,98436.47
2023-04-16T13:22:04.316Z,98436.31
2023-04-16T13:24:30.706Z,98445.00
2023-04-16T13:26:57.208Z,98441.53
2023-04-16T13:29:23.607Z,98441.84
2023-04-16T13:31:50.166Z,98446.97
2023-04-16T13:34:16.755Z,98453.06
2023-04-16T13:36:43.136Z,98450.44
2023-04-16T13:39:12.598Z,98446.25
2023-04-16T13:41:39.272Z,98446.28
2023-04-16T13:44:05.805Z,98451.19
2023-04-16T13:46:32.458Z,98453.44
2023-04-16T13:48:59.099Z,98456.47
2023-04-16T13:51:27.013Z,98447.94
2023-04-16T13:53:55.348Z,98445.94
2023-04-16T13:56:21.833Z,98453.19
2023-04-16T13:58:48.556Z,98452.59
2023-04-16T14:01:15.024Z,98457.00
2023-04-16T14:03:42.104Z,98450.72
2023-04-16T14:06:08.607Z,98448.16
2023-04-16T14:08:35.052Z,98455.56
2023-04-16T14:11:02.082Z,98452.28
2023-04-16T14:13:28.520Z,98462.44
2023-04-16T14:15:55.049Z,98460.31
2023-04-16T14:18:21.591Z,98458.34
2023-04-16T14:20:48.171Z,98464.19
2023-04-16T14:23:14.590Z,98462.28
2023-04-16T14:25:40.995Z,98458.81
2023-04-16T14:28:08.870Z,98459.97
2023-04-16T14:30:35.350Z,98463.78
2023-04-16T14:33:02.696Z,98461.56
2023-04-16T14:35:29.346Z,98450.72
2023-04-16T14:37:55.991Z,98456.59
2023-04-16T14:40:22.386Z,98455.97
2023-04-16T14:42:48.827Z,98448.53
2023-04-16T14:45:15.917Z,98450.88
2023-04-16T14:47:47.043Z,98446.91
2023-04-16T14:50:14.359Z,98455.66
2023-04-16T14:52:40.937Z,98457.66
2023-04-16T14:55:07.647Z,98461.75
2023-04-16T14:57:34.596Z,98463.41
2023-04-16T15:00:01.236Z,98467.84
2023-04-16T15:02:28.232Z,98471.69
2023-04-16T15:04:54.795Z,98469.44
2023-04-16T15:07:22.092Z,98472.81
2023-04-16T15:09:48.546Z,98475.75
2023-04-16T15:12:15.318Z,98475.56
2023-04-16T15:14:43.200Z,98480.28
2023-04-16T15:17:09.955Z,98481.16
2023-04-16T15:19:36.689Z,98481.63
2023-04-16T15:22:03.175Z,98482.97
2023-04-16T15:24:29.614Z,98482.44
2023-04-16T15:26:56.298Z,98481.44
2023-04-16T15:29:22.716Z,98472.97
2023-04-16T15:31:49.169Z,98486.63
2023-04-16T15:34:15.782Z,98483.69
2023-04-16T15:36:42.194Z,98493.38
2023-04-16T15:39:09.741Z,98489.03
2023-04-16T15:41:46.966Z,98483.38
2023-04-16T15:44:23.746Z,98489.66
2023-04-16T15:46:50.365Z,98494.34
2023-04-16T15:49:16.872Z,98495.38
2023-04-16T15:51:43.272Z,98500.53
2023-04-16T15:54:09.957Z,98501.63
2023-04-16T15:56:36.413Z,98506.28
2023-04-16T15:59:03.794Z,98504.47
2023-04-16T16:01:31.075Z,98500.88
2023-04-16T16:03:57.723Z,98506.22
2023-04-16T16:06:24.472Z,98507.97
2023-04-16T16:08:51.107Z,98508.09
2023-04-16T16:11:17.598Z,98509.88
2023-04-16T16:13:44.034Z,98511.44
2023-04-16T16:16:10.638Z,98513.00
2023-04-16T16:18:37.330Z,98509.56
2023-04-16T16:21:03.746Z,98513.84
2023-04-16T16:23:30.402Z,98513.41
2023-04-16T16:25:56.829Z,98519.78
2023-04-16T16:28:25.017Z,98520.03
2023-04-16T16:30:53.816Z,98519.69
2023-04-16T16:33:20.741Z,98520.00
2023-04-16T16:35:47.212Z,98523.63
2023-04-16T16:38:13.651Z,98529.88
2023-04-16T16:40:40.020Z,98528.13
2023-04-16T16:43:06.499Z,98524.94
2023-04-16T16:45:32.921Z,98530.84
2023-04-16T16:47:59.379Z,98529.22
2023-04-16T16:50:26.144Z,98532.53
2023-04-16T16:52:52.628Z,98532.66
2023-04-16T16:55:20.174Z,98530.09
2023-04-16T16:57:46.545Z,98529.94
2023-04-16T17:00:14.379Z,98534.56
2023-04-16T17:02:41.120Z,98532.81
2023-04-16T17:05:08.084Z,98538.75
2023-04-16T17:07:34.614Z,98541.72
2023-04-16T17:10:03.810Z,98540.75
2023-04-16T17:12:31.941Z,98537.00
2023-04-16T17:14:58.490Z,98537.81
2023-04-16T17:17:26.801Z,98543.75
2023-04-16T17:19:53.727Z,98547.97
2023-04-16T17:22:20.370Z,98547.03
2023-04-16T17:24:47.158Z,98554.56
2023-04-16T17:27:13.603Z,98552.25
2023-04-16T17:29:40.101Z,98552.31
2023-04-16T17:32:06.583Z,98556.59
2023-04-16T17:34:33.112Z,98560.88
2023-04-16T17:36:59.520Z,98560.91
2023-04-16T17:39:26.260Z,98564.31
2023-04-16T17:41:54.748Z,98560.16
2023-04-16T17:44:23.055Z,98560.38
2023-04-16T17:46:49.522Z,98568.88
2023-04-16T17:49:16.144Z,98574.88
2023-04-16T17:51:44.570Z,98565.59
2023-04-16T17:54:11.322Z,98569.03
2023-04-16T17:56:38.082Z,98572.53
2023-04-16T17:59:05.075Z,98575.94
2023-04-16T18:01:31.532Z,98576.88
2023-04-16T18:03:58.194Z,98577.78
2023-04-16T18:06:24.917Z,98585.59
2023-04-16T18:08:51.306Z,98586.38
2023-04-16T18:11:17.685Z,98585.50
2023-04-16T18:13:44.117Z,98593.50
2023-04-16T18:16:16.535Z,98587.53
2023-04-16T18:18:44.067Z,98595.97
2023-04-16T18:21:10.659Z,98586.72
2023-04-16T18:23:37.088Z,98596.97
2023-04-16T18:26:03.736Z,98591.00
2023-04-16T18:28:30.249Z,98596.25
2023-04-16T18:30:59.023Z,98597.97
2023-04-16T18:33:50.002Z,98605.78
2023-04-16T18:36:12.200Z,98611.81
2023-04-16T18:38:49.404Z,98611.75
2023-04-16T18:41:23.900Z,98624.66
2023-04-16T18:43:50.592Z,98623.00
2023-04-16T18:46:17.085Z,98628.97
2023-04-16T18:48:46.931Z,98634.19
2023-04-16T18:51:14.276Z,98639.31
2023-04-16T18:53:44.196Z,98631.69
2023-04-16T18:56:11.067Z,98635.19
2023-04-16T18:58:37.892Z,98639.47
2023-04-16T19:01:04.869Z,98641.97
2023-04-16T19:03:32.108Z,98642.75
2023-04-16T19:05:58.800Z,98648.84
2023-04-16T19:08:25.292Z,98645.53
2023-04-16T19:10:51.754Z,98644.75
2023-04-16T19:13:18.261Z,98657.63
2023-04-16T19:15:44.678Z,98655.03
2023-04-16T19:18:11.108Z,98661.09
2023-04-16T19:20:37.930Z,98658.63
2023-04-16T19:23:06.305Z,98656.16
2023-04-16T19:25:32.731Z,98661.31
2023-04-16T19:27:59.198Z,98666.50
2023-04-16T19:30:26.383Z,98667.34
2023-04-16T19:32:55.109Z,98669.94
2023-04-16T19:35:22.002Z,98668.13
2023-04-16T19:37:48.416Z,98669.00
2023-04-16T19:40:14.913Z,98670.72
2023-04-16T19:42:41.366Z,98664.84
2023-04-16T19:45:08.105Z,98675.13
2023-04-16T19:47:34.526Z,98675.13
2023-04-16T19:50:00.923Z,98676.84
2023-04-16T19:52:27.331Z,98679.41
2023-04-16T19:54:53.718Z,98680.28
2023-04-16T19:57:20.377Z,98682.84
2023-04-16T19:59:46.797Z,98682.84
2023-04-16T20:02:13.266Z,98683.75
2023-04-16T20:04:39.767Z,98676.94
2023-04-16T20:07:06.362Z,98686.34
2023-04-16T20:09:32.745Z,98689.81
2023-04-16T20:11:59.141Z,98688.94
2023-04-16T20:14:27.953Z,98680.34
2023-04-16T20:16:54.491Z,98682.19
2023-04-16T20:19:37.818Z,98680.47
2023-04-16T20:22:04.700Z,98680.56
2023-04-16T20:24:31.262Z,98689.09
2023-04-16T20:26:58.083Z,98684.06
2023-04-16T20:29:24.512Z,98684.09
2023-04-16T20:31:50.894Z,98676.41
2023-04-16T20:34:17.609Z,98687.50
2023-04-16T20:36:44.077Z,98682.38
2023-04-16T20:39:11.053Z,98681.50
2023-04-16T20:41:40.476Z,98680.66
2023-04-16T20:44:10.056Z,98680.66
2023-04-16T20:46:38.670Z,98683.22
2023-04-16T20:49:07.732Z,98686.59
2023-04-16T20:51:34.150Z,98684.00
2023-04-16T20:54:01.025Z,98678.03
2023-04-16T20:56:27.491Z,98680.59
2023-04-16T20:58:54.009Z,98688.28
2023-04-16T21:01:20.666Z,98680.59
2023-04-16T21:03:47.216Z,98683.16
2023-04-16T21:06:17.955Z,98681.44
2023-04-16T21:08:44.467Z,98690.00
2023-04-16T21:11:13.653Z,98687.53
2023-04-16T21:13:44.476Z,98684.03
2023-04-16T21:16:13.461Z,98684.09
2023-04-16T21:18:39.866Z,98682.47
2023-04-16T21:21:06.638Z,98687.50
2023-04-16T21:23:36.059Z,98679.84
2023-04-16T21:26:08.577Z,98685.78
2023-04-16T21:28:35.039Z,98681.53
2023-04-16T21:31:03.732Z,98685.81
2023-04-16T21:33:30.502Z,98684.13
2023-04-16T21:35:56.954Z,98689.25
2023-04-16T21:38:23.653Z,98679.03
2023-04-16T21:40:53.823Z,98679.03
2023-04-16T21:43:20.482Z,98679.94
2023-04-16T21:45:46.961Z,98680.75
2023-04-16T21:48:14.030Z,98685.16
2023-04-16T21:50:40.419Z,98681.72
2023-04-16T21:53:06.941Z,98683.44
2023-04-16T21:55:36.893Z,98680.88
2023-04-16T21:58:06.687Z,98680.88
2023-04-16T22:00:37.938Z,98678.38
2023-04-16T22:03:04.529Z,98677.56
2023-04-16T22:05:33.169Z,98672.41
2023-04-16T22:07:59.525Z,98673.25
2023-04-16T22:10:26.029Z,98674.97
2023-04-16T22:12:54.860Z,98670.78
2023-04-16T22:15:21.344Z,98677.63
2023-04-16T22:17:48.495Z,98676.78
2023-04-16T22:20:15.628Z,98677.63
2023-04-16T22:22:45.158Z,98669.84
2023-04-16T22:25:11.666Z,98673.41
2023-04-16T22:27:38.481Z,98673.41
2023-04-16T22:30:08.503Z,98670.94
2023-04-16T22:32:35.001Z,98667.50
2023-04-16T22:35:01.900Z,98664.06
2023-04-16T22:37:28.319Z,98662.41
2023-04-16T22:39:54.744Z,98663.31
2023-04-16T22:42:21.540Z,98666.66
2023-04-16T22:44:47.933Z,98662.41
2023-04-16T22:47:14.495Z,98670.09
2023-04-16T22:49:40.929Z,98663.22
2023-04-16T22:52:07.399Z,98669.16
2023-04-16T22:54:33.887Z,98668.31
2023-04-16T22:57:01.101Z,98671.75
2023-04-16T22:59:27.610Z,98671.72
2023-04-16T23:01:54.320Z,98671.81
2023-04-16T23:04:20.950Z,98676.06
2023-04-16T23:06:47.523Z,98679.47
2023-04-16T23:09:14.220Z,98681.19
2023-04-16T23:11:40.909Z,98676.97
2023-04-16T23:14:08.319Z,98679.53
2023-04-16T23:16:35.737Z,98683.03
2023-04-16T23:19:02.222Z,98684.75
2023-04-16T23:21:28.775Z,98683.13
2023-04-16T23:23:56.620Z,98679.69
2023-04-16T23:26:23.338Z,98674.56
2023-04-16T23:28:49.869Z,98679.66
2023-04-16T23:31:16.475Z,98676.22
2023-04-16T23:33:42.959Z,98678.81
2023-04-16T23:36:09.806Z,98677.91
2023-04-16T23:38:36.263Z,98679.59
2023-04-16T23:41:02.773Z,98682.97
2023-04-16T23:43:29.225Z,98676.13
2023-04-16T23:45:55.873Z,98676.09
2023-04-16T23:48:22.393Z,98674.47
2023-04-16T23:50:48.876Z,98671.88
2023-04-16T23:53:15.714Z,98676.25
2023-04-16T23:55:42.156Z,98675.31
2023-04-16T23:58:08.735Z,98675.34
